createdAt,value
2016-06-04T06:53:55.990Z,22.83
2016-06-04T06:54:56.008Z,22.78
2016-06-04T06:55:55.980Z,22.86
2016-06-04T06:56:55.936Z,22.84
2016-06-04T06:57:56.110Z,22.86
2016-06-04T06:58:56.128Z,22.86
2016-06-04T06:59:56.178Z,22.89
2016-06-04T07:00:56.197Z,22.82
2016-06-04T07:01:56.231Z,22.86
2016-06-04T07:02:56.280Z,22.94
2016-06-04T07:03:56.314Z,22.86
2016-06-04T07:04:56.191Z,22.89
2016-06-04T07:05:56.366Z,22.94
2016-06-04T07:06:56.416Z,22.93
2016-06-04T07:07:56.434Z,23.02
2016-06-04T07:08:56.499Z,23.01
2016-06-04T07:09:56.501Z,22.99
2016-06-04T07:10:56.566Z,22.96
2016-06-04T07:11:56.554Z,22.99
2016-06-04T07:12:57.009Z,23.04
2016-06-04T07:13:56.653Z,22.94
2016-06-04T07:14:56.688Z,23.01
2016-06-04T07:15:56.815Z,23.09
2016-06-04T07:16:56.770Z,23.15
2016-06-04T07:17:56.804Z,23.15
2016-06-04T07:18:56.838Z,23.19
2016-06-04T07:19:56.888Z,23.15
2016-06-04T07:20:56.750Z,23.14
2016-06-04T07:21:56.956Z,23.24
2016-06-04T07:22:56.990Z,23.22
2016-06-04T07:23:57.024Z,23.31
2016-06-04T07:24:57.183Z,23.31
2016-06-04T07:25:57.091Z,23.27
2016-06-04T07:26:56.829Z,23.27
2016-06-04T07:27:57.159Z,23.26
2016-06-04T07:28:57.209Z,23.27
2016-06-04T07:29:57.243Z,23.26
2016-06-04T07:30:57.277Z,23.34
2016-06-04T07:31:57.327Z,23.42
2016-06-04T07:32:57.375Z,23.42
2016-06-04T07:33:57.378Z,23.32
2016-06-04T07:34:57.428Z,23.35
2016-06-04T07:35:57.463Z,23.43
2016-06-04T07:36:57.496Z,23.42
2016-06-04T07:37:57.546Z,23.45
2016-06-04T07:38:57.564Z,23.49
2016-06-04T07:39:57.739Z,23.47
2016-06-04T07:40:58.132Z,23.5
2016-06-04T07:41:57.885Z,23.5
2016-06-04T07:42:57.560Z,23.5
2016-06-04T07:43:57.766Z,23.53
2016-06-04T07:44:57.799Z,23.55
2016-06-04T07:45:57.848Z,23.53
2016-06-04T07:46:57.867Z,23.55
2016-06-04T07:47:57.916Z,23.55
2016-06-04T07:48:57.935Z,23.58
2016-06-04T07:49:58.000Z,23.61
2016-06-04T07:50:58.018Z,23.6
2016-06-04T07:51:58.052Z,23.58
2016-06-04T07:52:58.101Z,23.64
2016-06-04T07:53:58.136Z,23.62
2016-06-04T07:54:58.200Z,23.62
2016-06-04T07:55:58.313Z,23.61
2016-06-04T07:56:58.862Z,23.67
2016-06-04T07:57:58.272Z,23.62
2016-06-04T07:58:58.306Z,23.7
2016-06-04T07:59:58.355Z,23.65
2016-06-04T08:00:58.389Z,23.68
2016-06-04T08:01:58.439Z,23.71
2016-06-04T08:02:58.456Z,23.72
2016-06-04T08:03:58.506Z,23.71
2016-06-04T08:04:58.541Z,23.76
2016-06-04T08:05:58.574Z,23.7
2016-06-04T08:06:58.608Z,23.67
2016-06-04T08:07:58.658Z,23.8
2016-06-04T08:08:58.692Z,23.77
2016-06-04T08:09:58.725Z,23.76
2016-06-04T08:10:58.760Z,23.76
2016-06-04T08:11:58.793Z,23.77
2016-06-04T08:12:58.655Z,23.79
2016-06-04T08:13:58.736Z,23.77
2016-06-04T08:14:58.926Z,23.72
2016-06-04T08:15:58.946Z,23.83
2016-06-04T08:16:58.994Z,23.76
2016-06-04T08:17:59.029Z,23.76
2016-06-04T08:18:59.062Z,23.82
2016-06-04T08:19:59.112Z,23.82
2016-06-04T08:20:59.130Z,23.77
2016-06-04T08:21:59.211Z,23.86
2016-06-04T08:22:59.198Z,23.79
2016-06-04T08:23:59.247Z,23.83
2016-06-04T08:24:59.673Z,23.85
2016-06-04T08:25:59.331Z,23.9
2016-06-04T08:26:59.396Z,23.85
2016-06-04T08:27:59.384Z,23.9
2016-06-04T08:28:59.433Z,23.97
2016-06-04T08:29:59.483Z,23.97
2016-06-04T08:30:59.516Z,23.9
2016-06-04T08:31:59.534Z,23.94
2016-06-04T08:32:59.600Z,23.89
2016-06-04T08:33:59.618Z,23.98
2016-06-04T08:34:59.668Z,23.95
2016-06-04T08:35:59.733Z,23.92
2016-06-04T08:37:00.157Z,24.01
2016-06-04T08:37:59.910Z,24.01
2016-06-04T08:38:59.819Z,23.95
2016-06-04T08:39:59.852Z,23.94
2016-06-04T08:40:59.918Z,24.05
2016-06-04T08:41:59.921Z,23.98
2016-06-04T08:42:59.954Z,24.07
2016-06-04T08:44:00.395Z,24.05
2016-06-04T08:45:00.039Z,24.05
2016-06-04T08:46:00.057Z,24.07
2016-06-04T08:47:00.107Z,24.17
2016-06-04T08:48:00.140Z,24.19
2016-06-04T08:49:00.174Z,24.13
2016-06-04T08:50:00.068Z,24.17
2016-06-04T08:51:00.257Z,24.16
2016-06-04T08:52:00.307Z,24.04
2016-06-04T08:53:00.357Z,24.04
2016-06-04T08:54:00.422Z,24.2
2016-06-04T08:55:00.393Z,24.22
2016-06-04T08:56:00.443Z,24.14
2016-06-04T08:57:00.492Z,24.19
2016-06-04T08:58:00.511Z,24.23
2016-06-04T08:59:01.232Z,24.19
2016-06-04T09:00:00.703Z,24.27
2016-06-04T09:01:00.628Z,24.32
2016-06-04T09:02:00.678Z,24.34
2016-06-04T09:03:00.712Z,24.29
2016-06-04T09:04:00.745Z,24.26
2016-06-04T09:05:00.795Z,24.29
2016-06-04T09:06:00.830Z,24.35
2016-06-04T09:07:00.895Z,24.32
2016-06-04T09:08:00.881Z,24.29
2016-06-04T09:09:00.963Z,24.32
2016-06-04T09:10:00.966Z,24.31
2016-06-04T09:11:01.014Z,24.27
2016-06-04T09:12:01.846Z,24.34
2016-06-04T09:13:01.099Z,24.34
2016-06-04T09:14:01.835Z,24.31
2016-06-04T09:15:00.994Z,24.41
2016-06-04T09:16:01.199Z,24.45
2016-06-04T09:17:01.219Z,24.42
2016-06-04T09:18:01.299Z,24.44
2016-06-04T09:19:01.317Z,24.5
2016-06-04T09:20:01.368Z,24.38
2016-06-04T09:21:01.370Z,24.44
2016-06-04T09:22:01.419Z,24.47
2016-06-04T09:23:01.704Z,24.44
2016-06-04T09:24:01.331Z,24.47
2016-06-04T09:25:01.537Z,24.45
2016-06-04T09:26:01.430Z,24.42
2016-06-04T09:27:01.604Z,24.47
2016-06-04T09:28:02.560Z,24.49
2016-06-04T09:29:01.547Z,24.49
2016-06-04T09:30:01.723Z,24.5
2016-06-04T09:31:01.756Z,24.44
2016-06-04T09:32:01.805Z,24.5
2016-06-04T09:33:01.839Z,24.52
2016-06-04T09:34:01.890Z,24.54
2016-06-04T09:35:01.908Z,24.53
2016-06-04T09:36:01.973Z,24.61
2016-06-04T09:37:01.991Z,24.6
2016-06-04T09:38:02.025Z,24.6
2016-06-04T09:39:02.059Z,24.53
2016-06-04T09:40:02.124Z,24.54
2016-06-04T09:41:02.142Z,24.6
2016-06-04T09:42:02.192Z,24.59
2016-06-04T09:43:02.070Z,24.56
2016-06-04T09:44:02.885Z,24.54
2016-06-04T09:45:02.310Z,24.64
2016-06-04T09:46:02.327Z,24.57
2016-06-04T09:47:02.377Z,24.6
2016-06-04T09:48:02.411Z,24.64
2016-06-04T09:49:02.445Z,24.57
2016-06-04T09:50:02.479Z,24.63
2016-06-04T09:51:02.560Z,24.63
2016-06-04T09:52:02.563Z,24.61
2016-06-04T09:53:02.596Z,24.71
2016-06-04T09:54:03.083Z,24.67
2016-06-04T09:55:02.665Z,24.67
2016-06-04T09:56:02.745Z,24.61
2016-06-04T09:57:02.748Z,24.67
2016-06-04T09:58:02.875Z,24.71
2016-06-04T09:59:03.519Z,24.71
2016-06-04T10:00:02.865Z,24.64
2016-06-04T10:01:02.899Z,24.67
2016-06-04T10:02:02.948Z,24.69
2016-06-04T10:03:02.983Z,24.64
2016-06-04T10:04:03.032Z,24.69
2016-06-04T10:05:03.035Z,24.69
2016-06-04T10:06:03.101Z,24.73
2016-06-04T10:07:03.023Z,24.67
2016-06-04T10:08:03.084Z,24.67
2016-06-04T10:09:03.303Z,24.71
2016-06-04T10:10:03.380Z,24.73
2016-06-04T10:11:03.430Z,24.63
2016-06-04T10:12:03.474Z,24.71
2016-06-04T10:13:04.534Z,24.69
2016-06-04T10:14:03.828Z,24.67
2016-06-04T10:15:03.621Z,24.77
2016-06-04T10:16:03.662Z,24.75
2016-06-04T10:17:03.699Z,24.79
2016-06-04T10:18:03.782Z,24.82
2016-06-04T10:19:03.804Z,24.73
2016-06-04T10:20:03.686Z,24.8
2016-06-04T10:21:03.597Z,24.73
2016-06-04T10:22:03.757Z,24.79
2016-06-04T10:23:03.964Z,24.83
2016-06-04T10:24:04.000Z,24.71
2016-06-04T10:25:04.067Z,24.77
2016-06-04T10:26:04.086Z,24.75
2016-06-04T10:27:04.120Z,24.76
2016-06-04T10:28:03.983Z,24.79
2016-06-04T10:29:05.204Z,24.83
2016-06-04T10:30:04.208Z,24.8
2016-06-04T10:31:04.241Z,24.79
2016-06-04T10:32:04.291Z,24.83
2016-06-04T10:33:04.341Z,24.82
2016-06-04T10:34:04.359Z,24.8
2016-06-04T10:35:04.409Z,24.79
2016-06-04T10:36:04.443Z,24.82
2016-06-04T10:37:04.492Z,24.82
2016-06-04T10:38:04.526Z,24.82
2016-06-04T10:39:04.560Z,24.76
2016-06-04T10:40:04.594Z,24.85
2016-06-04T10:41:04.643Z,24.83
2016-06-04T10:42:04.678Z,24.9
2016-06-04T10:43:04.712Z,24.76
2016-06-04T10:44:05.309Z,24.91
2016-06-04T10:45:04.795Z,24.91
2016-06-04T10:46:04.814Z,24.83
2016-06-04T10:47:04.862Z,24.91
2016-06-04T10:48:04.898Z,24.9
2016-06-04T10:49:04.962Z,24.9
2016-06-04T10:50:04.824Z,24.88
2016-06-04T10:51:05.014Z,24.9
2016-06-04T10:52:04.892Z,24.92
2016-06-04T10:53:05.098Z,24.9
2016-06-04T10:54:05.178Z,24.9
2016-06-04T10:55:05.166Z,24.97
2016-06-04T10:56:05.215Z,24.91
2016-06-04T10:57:05.264Z,24.87
2016-06-04T10:58:05.830Z,24.94
2016-06-04T10:59:05.316Z,24.9
2016-06-04T11:00:05.352Z,24.91
2016-06-04T11:01:05.400Z,24.95
2016-06-04T11:02:05.435Z,24.87
2016-06-04T11:03:05.469Z,24.94
2016-06-04T11:04:05.503Z,24.87
2016-06-04T11:05:05.552Z,24.87
2016-06-04T11:06:05.602Z,24.88
2016-06-04T11:07:05.620Z,24.88
2016-06-04T11:08:05.654Z,24.94
2016-06-04T11:09:05.704Z,24.92
2016-06-04T11:10:05.737Z,24.91
2016-06-04T11:11:05.771Z,24.9
2016-06-04T11:12:05.804Z,24.91
2016-06-04T11:13:05.933Z,24.97
2016-06-04T11:14:06.435Z,24.91
2016-06-04T11:15:05.923Z,24.87
2016-06-04T11:16:05.957Z,24.9
2016-06-04T11:17:06.007Z,24.9
2016-06-04T11:18:06.040Z,24.9
2016-06-04T11:19:06.074Z,24.91
2016-06-04T11:20:06.656Z,24.9
2016-06-04T11:21:06.142Z,24.9
2016-06-04T11:22:06.207Z,24.9
2016-06-04T11:23:06.272Z,24.9
2016-06-04T11:24:06.259Z,25.01
2016-06-04T11:25:06.309Z,24.91
2016-06-04T11:26:06.343Z,24.95
2016-06-04T11:27:07.064Z,24.92
2016-06-04T11:28:06.770Z,24.91
2016-06-04T11:29:06.461Z,24.98
2016-06-04T11:30:06.495Z,24.91
2016-06-04T11:31:07.278Z,24.9
2016-06-04T11:32:06.563Z,25.01
2016-06-04T11:33:06.611Z,24.98
2016-06-04T11:34:06.646Z,24.97
2016-06-04T11:35:06.680Z,24.92
2016-06-04T11:36:07.495Z,24.9
2016-06-04T11:37:07.029Z,24.98
2016-06-04T11:38:06.624Z,25.02
2016-06-04T11:39:06.832Z,24.98
2016-06-04T11:40:06.959Z,24.92
2016-06-04T11:41:07.774Z,24.97
2016-06-04T11:42:07.464Z,24.95
2016-06-04T11:43:06.998Z,24.9
2016-06-04T11:44:07.015Z,25
2016-06-04T11:45:07.066Z,24.97
2016-06-04T11:46:07.100Z,25.07
2016-06-04T11:47:07.148Z,24.92
2016-06-04T11:48:07.012Z,24.97
2016-06-04T11:49:07.234Z,25.02
2016-06-04T11:50:07.251Z,25
2016-06-04T11:51:07.285Z,25.05
2016-06-04T11:52:07.320Z,25.02
2016-06-04T11:53:07.369Z,25.01
2016-06-04T11:54:07.465Z,25.09
2016-06-04T11:55:07.453Z,25.1
2016-06-04T11:56:07.533Z,25.12
2016-06-04T11:57:08.379Z,25.01
2016-06-04T11:58:07.554Z,25.07
2016-06-04T11:59:07.822Z,25.05
2016-06-04T12:00:07.466Z,25.12
2016-06-04T12:01:07.687Z,25.1
2016-06-04T12:02:07.814Z,25.09
2016-06-04T12:03:07.739Z,25.12
2016-06-04T12:04:07.773Z,25.09
2016-06-04T12:05:07.964Z,25.01
2016-06-04T12:06:07.872Z,25.02
2016-06-04T12:07:07.891Z,25.07
2016-06-04T12:08:07.940Z,25.2
2016-06-04T12:09:07.991Z,25.09
2016-06-04T12:10:07.993Z,25.07
2016-06-04T12:11:08.933Z,25.13
2016-06-04T12:12:07.826Z,25.07
2016-06-04T12:13:08.126Z,25.17
2016-06-04T12:14:08.160Z,25.12
2016-06-04T12:15:08.209Z,25.12
2016-06-04T12:16:08.243Z,25.19
2016-06-04T12:17:08.324Z,25.17
2016-06-04T12:18:08.311Z,25.16
2016-06-04T12:19:08.376Z,25.17
2016-06-04T12:20:08.395Z,25.12
2016-06-04T12:21:08.445Z,25.09
2016-06-04T12:22:08.618Z,25.12
2016-06-04T12:23:09.090Z,25.1
2016-06-04T12:24:08.795Z,25.13
2016-06-04T12:25:08.580Z,25.16
2016-06-04T12:26:08.614Z,25.1
2016-06-04T12:27:08.678Z,25.13
2016-06-04T12:28:09.354Z,25.07
2016-06-04T12:29:08.825Z,25.1
2016-06-04T12:30:08.781Z,25.19
2016-06-04T12:31:08.830Z,25.15
2016-06-04T12:32:08.864Z,25.15
2016-06-04T12:33:08.898Z,25.15
2016-06-04T12:34:08.932Z,25.17
2016-06-04T12:35:08.982Z,25.16
2016-06-04T12:36:09.000Z,25.15
2016-06-04T12:37:09.050Z,25.2
2016-06-04T12:38:09.083Z,25.19
2016-06-04T12:39:09.118Z,25.19
2016-06-04T12:40:09.152Z,25.2
2016-06-04T12:41:09.185Z,25.19
2016-06-04T12:42:09.251Z,25.19
2016-06-04T12:43:09.300Z,25.22
2016-06-04T12:44:09.318Z,25.22
2016-06-04T12:45:09.352Z,25.17
2016-06-04T12:46:09.386Z,25.22
2016-06-04T12:47:09.874Z,25.2
2016-06-04T12:48:09.704Z,25.17
2016-06-04T12:49:09.551Z,25.19
2016-06-04T12:50:09.568Z,25.25
2016-06-04T12:51:09.603Z,25.2
2016-06-04T12:52:09.621Z,25.24
2016-06-04T12:53:09.655Z,25.24
2016-06-04T12:54:09.720Z,25.25
2016-06-04T12:55:09.739Z,25.25
2016-06-04T12:56:10.398Z,25.3
2016-06-04T12:57:10.853Z,25.27
2016-06-04T12:58:09.840Z,25.19
2016-06-04T12:59:09.890Z,25.27
2016-06-04T13:00:09.939Z,25.22
2016-06-04T13:01:09.973Z,25.25
2016-06-04T13:02:13.242Z,25.2
2016-06-04T13:03:10.167Z,25.25
2016-06-04T13:04:10.075Z,25.31
2016-06-04T13:05:10.109Z,25.24
2016-06-04T13:06:10.159Z,25.32
2016-06-04T13:07:13.302Z,25.3
2016-06-04T13:08:10.227Z,25.28
2016-06-04T13:09:10.291Z,25.32
2016-06-04T13:10:11.076Z,25.25
2016-06-04T13:11:11.032Z,25.3
2016-06-04T13:12:13.441Z,25.27
2016-06-04T13:13:11.194Z,25.31
2016-06-04T13:14:11.383Z,25.27
2016-06-04T13:15:10.557Z,25.32
2016-06-04T13:16:10.733Z,25.28
2016-06-04T13:17:11.704Z,25.31
2016-06-04T13:18:10.848Z,25.32
2016-06-04T13:19:10.882Z,25.32
2016-06-04T13:20:10.806Z,25.34
2016-06-04T13:21:10.933Z,25.31
2016-06-04T13:22:13.140Z,25.28
2016-06-04T13:23:11.032Z,25.34
2016-06-04T13:24:10.864Z,25.38
2016-06-04T13:25:10.897Z,25.27
2016-06-04T13:26:12.026Z,25.32
2016-06-04T13:27:13.450Z,25.34
2016-06-04T13:28:11.000Z,25.38
2016-06-04T13:29:11.048Z,25.34
2016-06-04T13:30:11.083Z,25.35
2016-06-04T13:31:11.117Z,25.42
2016-06-04T13:32:11.151Z,25.28
2016-06-04T13:33:11.216Z,25.38
2016-06-04T13:34:11.234Z,25.37
2016-06-04T13:35:11.269Z,25.27
2016-06-04T13:36:11.302Z,25.35
2016-06-04T13:37:11.352Z,25.37
2016-06-04T13:38:11.386Z,25.34
2016-06-04T13:39:11.436Z,25.32
2016-06-04T13:40:11.469Z,25.31
2016-06-04T13:41:11.518Z,25.39
2016-06-04T13:42:12.241Z,25.43
2016-06-04T13:43:11.602Z,25.34
2016-06-04T13:44:11.621Z,25.37
2016-06-04T13:45:11.655Z,25.37
2016-06-04T13:46:11.704Z,25.38
2016-06-04T13:47:11.566Z,25.39
2016-06-04T13:48:11.772Z,25.35
2016-06-04T13:49:11.837Z,25.43
2016-06-04T13:50:11.840Z,25.38
2016-06-04T13:51:11.890Z,25.42
2016-06-04T13:52:11.939Z,25.34
2016-06-04T13:53:11.817Z,25.3
2016-06-04T13:54:12.070Z,25.35
2016-06-04T13:55:12.072Z,25.46
2016-06-04T13:56:11.918Z,25.32
2016-06-04T13:57:12.109Z,25.37
2016-06-04T13:58:12.174Z,25.39
2016-06-04T13:59:12.739Z,25.37
2016-06-04T14:00:12.226Z,25.42
2016-06-04T14:01:12.275Z,25.42
2016-06-04T14:02:13.778Z,25.34
2016-06-04T14:03:12.344Z,25.42
2016-06-04T14:04:12.378Z,25.37
2016-06-04T14:05:12.442Z,25.44
2016-06-04T14:06:12.461Z,25.39
2016-06-04T14:07:12.495Z,25.38
2016-06-04T14:08:12.529Z,25.42
2016-06-04T14:09:12.563Z,25.44
2016-06-04T14:10:12.613Z,25.38
2016-06-04T14:11:12.880Z,25.42
2016-06-04T14:12:13.946Z,25.42
2016-06-04T14:13:12.730Z,25.38
2016-06-04T14:14:12.764Z,25.42
2016-06-04T14:15:12.813Z,25.39
2016-06-04T14:16:12.691Z,25.38
2016-06-04T14:17:12.881Z,25.39
2016-06-04T14:18:12.915Z,25.46
2016-06-04T14:19:12.808Z,25.38
2016-06-04T14:20:12.998Z,25.39
2016-06-04T14:21:13.048Z,25.37
2016-06-04T14:22:14.910Z,25.39
2016-06-04T14:23:13.115Z,25.38
2016-06-04T14:24:13.150Z,25.37
2016-06-04T14:25:13.184Z,25.37
2016-06-04T14:26:13.077Z,25.32
2016-06-04T14:27:15.954Z,25.46
2016-06-04T14:28:13.302Z,25.3
2016-06-04T14:29:13.351Z,25.31
2016-06-04T14:30:13.384Z,25.32
2016-06-04T14:31:13.419Z,25.37
2016-06-04T14:32:15.937Z,25.35
2016-06-04T14:33:13.486Z,25.35
2016-06-04T14:34:13.537Z,25.42
2016-06-04T14:35:13.570Z,25.27
2016-06-04T14:36:13.619Z,25.34
2016-06-04T14:37:15.592Z,25.3
2016-06-04T14:38:13.688Z,25.3
2016-06-04T14:39:13.722Z,25.31
2016-06-04T14:40:13.755Z,25.31
2016-06-04T14:41:13.961Z,25.31
2016-06-04T14:42:13.838Z,25.31
2016-06-04T14:43:13.873Z,25.3
2016-06-04T14:44:13.922Z,25.31
2016-06-04T14:45:13.957Z,25.31
2016-06-04T14:46:13.991Z,25.31
2016-06-04T14:47:14.040Z,25.34
2016-06-04T14:48:14.058Z,25.19
2016-06-04T14:49:16.358Z,25.28
2016-06-04T14:50:14.141Z,25.32
2016-06-04T14:51:14.191Z,25.22
2016-06-04T14:52:14.209Z,25.24
2016-06-04T14:53:14.290Z,25.24
2016-06-04T14:54:15.621Z,25.3
2016-06-04T14:55:14.343Z,25.27
2016-06-04T14:56:14.377Z,25.24
2016-06-04T14:57:14.410Z,25.22
2016-06-04T14:58:15.023Z,25.25
2016-06-04T14:59:14.932Z,25.25
2016-06-04T15:00:14.528Z,25.25
2016-06-04T15:01:14.562Z,25.19
2016-06-04T15:02:14.596Z,25.24
2016-06-04T15:03:14.645Z,25.24
2016-06-04T15:04:14.679Z,25.19
2016-06-04T15:05:14.714Z,25.2
2016-06-04T15:06:14.747Z,25.24
2016-06-04T15:07:14.797Z,25.25
2016-06-04T15:08:14.830Z,25.2
2016-06-04T15:09:14.865Z,25.25
2016-06-04T15:10:14.899Z,25.2
2016-06-04T15:11:14.933Z,25.24
2016-06-04T15:12:14.842Z,25.19
2016-06-04T15:20:17.004Z,25.93
2016-06-04T15:21:17.054Z,26.04
2016-06-04T15:22:17.088Z,26.01
2016-06-04T15:23:17.121Z,26.18
2016-06-04T15:24:17.249Z,26.15
2016-06-04T15:25:17.190Z,26.22
2016-06-04T15:26:17.223Z,26.42
2016-06-04T15:27:17.773Z,26.44
2016-06-04T15:28:17.306Z,26.5
2016-06-04T15:33:15.429Z,27.31
2016-06-04T15:34:15.479Z,27.66
2016-06-04T15:35:15.372Z,27.88
2016-06-04T15:36:15.547Z,28.51
2016-06-04T15:37:15.580Z,29.4
2016-06-04T15:38:15.614Z,29.37
2016-06-04T15:39:15.648Z,29.29
2016-06-04T15:40:15.683Z,29.9
2016-06-04T15:41:15.733Z,32.71
2016-06-04T15:42:15.766Z,32.84
2016-06-04T15:43:15.908Z,31.38
2016-06-04T15:44:15.833Z,30.19
2016-06-04T15:45:15.868Z,29.74
2016-06-04T15:46:15.902Z,30.68
2016-06-04T15:47:15.935Z,30.43
2016-06-04T15:48:15.970Z,29.99
2016-06-04T15:49:16.019Z,30.4
2016-06-04T15:50:16.038Z,30.64
2016-06-04T15:51:16.088Z,30.23
2016-06-04T15:52:16.121Z,30.16
2016-06-04T15:53:16.171Z,30.24
2016-06-04T15:54:16.204Z,30.45
2016-06-04T15:55:16.238Z,30.75
2016-06-04T15:56:16.272Z,31.04
2016-06-04T15:57:16.166Z,31.02
2016-06-04T15:58:16.357Z,30.07
2016-06-04T15:59:16.249Z,29.33
2016-06-04T16:00:16.424Z,28.95
2016-06-04T16:01:16.473Z,28.73
2016-06-04T16:02:16.351Z,28.41
2016-06-04T16:03:16.556Z,28.17
2016-06-04T16:04:16.606Z,28.13
2016-06-04T16:05:16.640Z,27.71
2016-06-04T16:08:44.198Z,27.54
2016-06-04T16:09:44.232Z,27.57
2016-06-04T16:10:44.281Z,27.21
2016-06-04T16:11:44.316Z,27.23
2016-06-04T16:12:44.568Z,27.13
2016-06-04T16:13:44.415Z,27.17
2016-06-04T16:14:44.433Z,27.21
